Time;durP1;ratioP1;P1;durP2;ratioP2;P2;SDS_P1;SDS_P2;PMS_P1;PMS_P2;Temp;Humidity;BMP_temperature;BMP_pressure;BME280_temperature;BME280_humidity;BME280_pressure;Samples;Min_cycle;Max_cycle;Signal;HPM_P1;HPM_P2
2020/12/14 00:01:54;;;;;;;151.73;31.87;;;;;;;4.43;87.78;100807.94;5017343;28;20173;-77
2020/12/14 00:04:20;;;;;;;185.87;38.50;;;;;;;4.50;88.63;100807.31;5016947;28;20591;-78
2020/12/14 00:06:50;;;;;;;147.67;34.83;;;;;;;4.54;88.78;100807.47;5017017;28;20175;-76
2020/12/14 00:09:15;;;;;;;138.80;33.77;;;;;;;4.68;88.01;100802.81;5017220;28;20590;-75
2020/12/14 00:11:40;;;;;;;181.87;37.83;;;;;;;4.61;87.95;100808.56;5016939;28;20580;-77
2020/12/14 00:14:06;;;;;;;172.90;33.60;;;;;;;4.48;89.12;100806.38;5016906;28;20219;-77
2020/12/14 00:16:31;;;;;;;206.40;34.63;;;;;;;4.57;87.99;100816.16;5023627;28;20517;-76
2020/12/14 00:18:56;;;;;;;151.63;29.30;;;;;;;4.47;88.18;100820.13;5035922;28;20166;-75
2020/12/14 00:21:21;;;;;;;159.37;31.47;;;;;;;4.38;88.52;100818.97;5036500;28;20185;-74
2020/12/14 00:23:47;;;;;;;122.33;31.50;;;;;;;4.45;89.17;100817.50;5036520;28;20660;-74
2020/12/14 00:26:13;;;;;;;191.80;32.87;;;;;;;4.38;88.79;100818.06;5036506;28;20435;-75
2020/12/14 00:28:38;;;;;;;115.97;30.53;;;;;;;4.49;88.07;100833.94;5036294;28;20550;-75
2020/12/14 00:31:04;;;;;;;150.73;32.40;;;;;;;4.43;88.51;100828.59;5039407;28;20464;-74
2020/12/14 00:33:29;;;;;;;176.73;33.50;;;;;;;4.64;87.61;100839.66;5040085;28;20181;-75
2020/12/14 00:35:54;;;;;;;163.83;31.47;;;;;;;4.39;88.42;100828.44;5040618;28;20562;-77
2020/12/14 00:38:21;;;;;;;173.43;34.03;;;;;;;4.46;88.25;100820.94;5040087;28;20178;-73
2020/12/14 00:40:46;;;;;;;144.27;31.90;;;;;;;4.19;88.54;100819.09;5039856;28;20196;-76
2020/12/14 00:43:11;;;;;;;111.40;31.67;;;;;;;4.33;89.04;100807.59;5040375;28;20492;-79
2020/12/14 00:45:37;;;;;;;144.40;31.47;;;;;;;4.25;88.90;100814.19;5040188;28;20438;-80
2020/12/14 00:48:02;;;;;;;167.83;34.10;;;;;;;4.35;88.99;100805.94;5040126;28;20527;-78
2020/12/14 00:50:27;;;;;;;116.93;32.77;;;;;;;4.44;88.36;100814.81;5040112;28;20190;-78
2020/12/14 00:52:53;;;;;;;84.00;29.30;;;;;;;4.51;88.14;100809.06;5039897;28;20213;-73
2020/12/14 00:55:18;;;;;;;86.67;29.43;;;;;;;4.54;87.94;100819.50;5039799;28;20170;-75
2020/12/14 00:57:43;;;;;;;73.90;29.17;;;;;;;4.46;88.60;100810.59;5040042;28;20179;-75
2020/12/14 01:00:08;;;;;;;59.13;29.20;;;;;;;4.66;87.77;100816.47;5039468;28;20260;-75
2020/12/14 01:02:34;;;;;;;126.23;30.07;;;;;;;4.58;88.39;100815.34;5039589;28;20645;-78
2020/12/14 01:04:59;;;;;;;83.23;29.23;;;;;;;4.64;87.96;100818.13;5039982;28;20167;-76
2020/12/14 01:07:25;;;;;;;115.83;31.47;;;;;;;4.49;88.99;100815.88;5039688;28;20174;-75
2020/12/14 01:09:50;;;;;;;72.03;29.97;;;;;;;4.51;87.93;100812.53;5039348;28;20173;-75
2020/12/14 01:12:15;;;;;;;78.07;30.40;;;;;;;4.66;87.81;100793.25;5039677;28;20195;-76
2020/12/14 01:14:41;;;;;;;79.53;27.50;;;;;;;4.54;87.67;100789.38;5039343;28;20301;-76
2020/12/14 01:17:06;;;;;;;113.00;31.57;;;;;;;4.54;88.54;100770.44;5039368;28;20171;-75
2020/12/14 01:19:31;;;;;;;113.30;30.00;;;;;;;4.32;89.01;100756.78;5039504;28;20166;-76
2020/12/14 01:21:57;;;;;;;71.03;30.30;;;;;;;4.44;88.71;100739.97;5039149;28;20171;-76
2020/12/14 01:24:22;;;;;;;68.83;30.07;;;;;;;4.47;88.55;100737.50;5039046;28;20265;-76
2020/12/14 01:26:47;;;;;;;54.40;30.90;;;;;;;4.73;87.63;100746.13;5039788;28;20253;-76
2020/12/14 01:29:12;;;;;;;69.10;29.23;;;;;;;4.68;87.70;100740.81;5039095;28;20174;-76
2020/12/14 01:31:38;;;;;;;49.93;30.27;;;;;;;4.71;87.39;100746.09;5039337;28;20572;-75
2020/12/14 01:34:03;;;;;;;53.10;28.57;;;;;;;4.31;88.92;100742.13;5039564;28;20158;-77
2020/12/14 01:36:28;;;;;;;48.60;29.83;;;;;;;4.63;87.93;100742.38;5039272;28;20170;-78
2020/12/14 01:38:54;;;;;;;48.23;28.80;;;;;;;4.78;86.50;100738.56;5039040;28;20178;-75
2020/12/14 01:41:19;;;;;;;47.90;28.90;;;;;;;4.74;87.50;100742.72;5038846;28;20435;-75
2020/12/14 01:43:44;;;;;;;51.00;28.17;;;;;;;4.61;86.36;100731.09;5038971;28;20451;-74
2020/12/14 01:46:10;;;;;;;47.77;29.57;;;;;;;4.81;87.36;100729.19;5039006;28;20253;-75
2020/12/14 01:48:35;;;;;;;47.73;27.10;;;;;;;4.81;87.14;100725.72;5038459;28;20166;-75
2020/12/14 01:51:00;;;;;;;46.10;28.70;;;;;;;4.82;87.19;100730.94;5038871;28;20202;-75
2020/12/14 01:53:27;;;;;;;42.70;26.47;;;;;;;4.81;86.90;100726.59;5038801;28;20190;-76
2020/12/14 01:55:54;;;;;;;46.27;27.47;;;;;;;4.79;86.66;100725.69;5038500;28;20171;-76
2020/12/14 01:58:19;;;;;;;38.97;25.80;;;;;;;4.77;87.48;100722.16;5038621;28;20504;-77
2020/12/14 02:00:45;;;;;;;47.67;28.00;;;;;;;4.95;86.71;100721.00;5038527;28;20532;-75
2020/12/14 02:03:10;;;;;;;41.77;27.43;;;;;;;4.77;86.87;100718.72;5039072;28;20166;-75
2020/12/14 02:05:35;;;;;;;43.87;26.10;;;;;;;4.82;87.02;100709.41;5038729;28;20209;-76
2020/12/14 02:08:00;;;;;;;43.27;26.87;;;;;;;4.84;86.44;100705.16;5038653;28;20257;-76
2020/12/14 02:10:26;;;;;;;47.10;28.20;;;;;;;4.69;86.83;100710.69;5038832;28;20221;-76
2020/12/14 02:12:51;;;;;;;41.17;26.00;;;;;;;4.86;86.43;100712.13;5038565;28;20166;-75
2020/12/14 02:15:17;;;;;;;46.70;28.23;;;;;;;4.89;86.24;100717.38;5038515;28;20227;-76
2020/12/14 02:17:42;;;;;;;52.33;28.70;;;;;;;4.72;86.54;100710.78;5038835;28;20166;-78
2020/12/14 02:20:07;;;;;;;42.03;27.77;;;;;;;4.81;86.66;100715.41;5038356;28;20578;-77
2020/12/14 02:22:33;;;;;;;39.87;25.70;;;;;;;4.82;86.28;100709.41;5038326;28;20257;-78
2020/12/14 02:25:00;;;;;;;41.93;27.40;;;;;;;4.98;86.12;100715.94;5038261;28;20218;-76
2020/12/14 02:27:26;;;;;;;42.40;27.10;;;;;;;4.95;86.10;100727.06;5038178;28;20177;-75
2020/12/14 02:29:53;;;;;;;43.67;29.17;;;;;;;4.93;85.57;100728.72;5038325;28;20412;-76
2020/12/14 02:32:19;;;;;;;42.80;27.00;;;;;;;4.95;85.74;100729.66;5038081;28;20472;-75
2020/12/14 02:34:46;;;;;;;39.00;25.27;;;;;;;4.96;85.26;100725.34;5038073;28;20421;-74
2020/12/14 02:37:13;;;;;;;45.97;28.80;;;;;;;4.88;85.38;100714.75;5038446;28;20417;-75
2020/12/14 02:39:39;;;;;;;43.90;29.00;;;;;;;4.94;86.24;100709.81;5037882;28;20773;-77
2020/12/14 02:42:09;;;;;;;46.00;28.00;;;;;;;5.02;85.49;100703.16;5037919;28;20435;-73
2020/12/14 02:44:35;;;;;;;39.83;26.40;;;;;;;4.82;86.36;100696.50;5038222;28;20174;-76
2020/12/14 02:47:00;;;;;;;41.83;27.40;;;;;;;4.92;85.87;100685.63;5037805;28;20428;-81
2020/12/14 02:49:25;;;;;;;37.00;26.07;;;;;;;4.83;85.87;100677.56;5037703;28;20253;-75
2020/12/14 02:51:51;;;;;;;42.97;27.00;;;;;;;4.84;85.96;100682.81;5037821;28;20198;-71
2020/12/14 02:54:16;;;;;;;43.20;27.07;;;;;;;4.66;86.82;100679.63;5036442;28;20451;-75
2020/12/14 02:56:43;;;;;;;44.07;27.47;;;;;;;4.58;86.28;100674.19;5037383;28;20194;-76
2020/12/14 02:59:09;;;;;;;40.77;26.47;;;;;;;4.47;86.88;100671.25;5036843;28;20166;-73
2020/12/14 03:01:34;;;;;;;44.00;27.40;;;;;;;4.59;86.63;100669.91;5017716;28;20434;-73
2020/12/14 03:04:00;;;;;;;39.87;26.70;;;;;;;4.62;86.42;100672.59;5017639;28;20418;-74
2020/12/14 03:06:25;;;;;;;42.67;26.60;;;;;;;4.52;87.27;100668.84;5017757;28;20213;-75
2020/12/14 03:08:50;;;;;;;41.77;28.33;;;;;;;4.45;86.89;100677.19;5017346;28;20182;-75
2020/12/14 03:11:16;;;;;;;43.00;28.10;;;;;;;4.45;86.63;100677.19;5017308;28;20203;-74
2020/12/14 03:13:42;;;;;;;42.20;26.13;;;;;;;4.32;86.83;100670.75;5017913;28;20167;-74
2020/12/14 03:16:07;;;;;;;40.03;26.37;;;;;;;4.54;87.24;100669.75;5017133;28;20426;-72
2020/12/14 03:18:32;;;;;;;41.97;27.83;;;;;;;4.54;87.10;100669.75;5017409;28;20198;-72
2020/12/14 03:20:58;;;;;;;39.97;27.20;;;;;;;4.63;86.41;100674.38;5017816;28;20467;-73
2020/12/14 03:23:24;;;;;;;36.50;25.07;;;;;;;4.77;85.86;100669.66;5017283;28;20173;-72
2020/12/14 03:25:49;;;;;;;35.47;24.57;;;;;;;4.80;85.99;100669.72;5017387;28;20163;-73
2020/12/14 03:28:14;;;;;;;34.53;24.77;;;;;;;4.72;85.96;100661.72;5017460;28;20438;-74
2020/12/14 03:30:39;;;;;;;33.80;24.20;;;;;;;4.64;85.47;100661.50;5017057;28;20580;-73
2020/12/14 03:33:05;;;;;;;36.13;23.10;;;;;;;4.73;85.89;100660.91;5017203;28;20179;-74
2020/12/14 03:35:30;;;;;;;36.33;24.40;;;;;;;4.76;84.96;100658.41;5017601;28;20163;-72
2020/12/14 03:37:56;;;;;;;34.83;25.43;;;;;;;4.80;85.40;100662.84;5017286;28;20221;-73
2020/12/14 03:40:21;;;;;;;35.73;24.83;;;;;;;4.68;85.42;100654.72;5016844;28;20481;-72
2020/12/14 03:42:46;;;;;;;35.23;22.87;;;;;;;4.64;85.87;100642.53;5017492;28;20378;-72
2020/12/14 03:45:11;;;;;;;35.27;23.90;;;;;;;4.65;85.02;100640.00;5017082;28;20225;-72
2020/12/14 03:47:37;;;;;;;32.83;22.63;;;;;;;4.64;84.92;100642.53;5017124;28;20202;-73
2020/12/14 03:50:02;;;;;;;34.80;24.70;;;;;;;4.75;85.12;100635.13;5017229;28;20544;-73
2020/12/14 03:52:27;;;;;;;35.30;22.90;;;;;;;4.62;85.19;100632.16;5016793;28;20191;-73
2020/12/14 03:54:53;;;;;;;32.40;22.50;;;;;;;4.72;85.17;100630.75;5016789;28;20171;-73
2020/12/14 03:57:18;;;;;;;30.13;21.87;;;;;;;4.63;84.80;100631.34;5017384;28;20170;-73
2020/12/14 03:59:43;;;;;;;31.23;22.70;;;;;;;4.77;84.73;100624.03;5016832;28;20559;-73
2020/12/14 04:02:09;;;;;;;29.80;20.70;;;;;;;4.68;85.16;100623.72;5016886;28;20193;-73
2020/12/14 04:04:34;;;;;;;28.43;20.93;;;;;;;4.64;84.46;100625.34;5017859;28;20199;-73
2020/12/14 04:07:00;;;;;;;29.60;20.10;;;;;;;4.47;84.53;100621.34;5020987;28;20606;-73
2020/12/14 04:09:25;;;;;;;25.87;19.80;;;;;;;4.72;84.53;100630.75;5020638;28;20167;-72
2020/12/14 04:11:50;;;;;;;29.53;21.57;;;;;;;4.87;83.77;100632.91;5021153;28;20186;-73
2020/12/14 04:14:15;;;;;;;31.73;21.83;;;;;;;4.82;83.64;100634.50;5020649;28;20175;-72
2020/12/14 04:16:42;;;;;;;31.50;20.93;;;;;;;4.85;84.11;100639.75;5027655;28;20170;-72
2020/12/14 04:19:08;;;;;;;30.63;21.50;;;;;;;4.82;83.81;100639.69;5040605;28;20162;-72
2020/12/14 04:21:33;;;;;;;26.80;19.90;;;;;;;4.62;84.05;100639.91;5040068;28;20424;-72
2020/12/14 04:23:58;;;;;;;26.57;19.40;;;;;;;4.86;83.63;100641.53;5029413;28;20308;-72
2020/12/14 04:26:24;;;;;;;26.87;20.07;;;;;;;4.91;82.94;100637.34;5026815;28;20289;-72
2020/12/14 04:28:49;;;;;;;25.87;19.07;;;;;;;4.81;83.54;100646.53;5034426;28;20699;-72
2020/12/14 04:31:14;;;;;;;25.13;19.40;;;;;;;4.74;82.99;100660.09;5027327;28;20232;-72
2020/12/14 04:33:40;;;;;;;22.00;17.47;;;;;;;4.77;83.73;100656.72;5034138;28;20170;-73
2020/12/14 04:36:06;;;;;;;24.73;18.43;;;;;;;4.97;82.70;100647.88;5035122;28;20180;-73
2020/12/14 04:38:31;;;;;;;24.47;17.67;;;;;;;5.09;82.63;100652.56;5039713;28;20416;-73
2020/12/14 04:41:02;;;;;;;23.80;18.67;;;;;;;4.79;82.54;100652.47;5039684;28;20162;-72
2020/12/14 04:43:27;;;;;;;24.80;17.70;;;;;;;5.03;82.16;100653.25;5038966;28;20173;-72
2020/12/14 04:45:54;;;;;;;23.37;19.23;;;;;;;4.94;82.47;100652.97;5039012;28;20421;-73
2020/12/14 04:48:19;;;;;;;21.23;17.50;;;;;;;5.17;82.30;100645.06;5038363;28;20162;-72
2020/12/14 04:50:45;;;;;;;23.70;17.27;;;;;;;5.13;82.33;100638.91;5038755;28;21093;-73
2020/12/14 04:53:10;;;;;;;20.43;16.60;;;;;;;4.89;82.09;100629.56;5039196;28;20761;-73
2020/12/14 04:55:38;;;;;;;21.30;16.97;;;;;;;5.18;81.95;100632.16;5039974;28;20154;-72
2020/12/14 04:58:05;;;;;;;19.73;16.30;;;;;;;5.14;81.24;100642.34;5039847;28;20177;-72
2020/12/14 05:00:30;;;;;;;19.03;15.27;;;;;;;5.02;82.08;100636.00;5038823;28;20420;-72
2020/12/14 05:02:56;;;;;;;22.00;16.00;;;;;;;5.12;81.86;100625.94;5040020;28;20791;-73
2020/12/14 05:05:23;;;;;;;21.47;16.83;;;;;;;5.13;81.28;100632.84;5039598;28;20428;-72
2020/12/14 05:07:48;;;;;;;18.50;14.63;;;;;;;5.20;81.66;100619.28;5039436;28;20417;-73
2020/12/14 05:10:14;;;;;;;20.73;15.03;;;;;;;4.89;81.59;100619.22;5039637;28;20848;-74
2020/12/14 05:12:43;;;;;;;21.77;15.57;;;;;;;4.96;82.22;100606.50;5039589;28;20197;-73
2020/12/14 05:15:39;;;;;;;20.00;14.70;;;;;;;5.10;81.14;100612.09;5039553;28;20178;-73
2020/12/14 05:18:12;;;;;;;16.40;13.80;;;;;;;4.92;81.98;100617.59;5038454;28;20447;-72
2020/12/14 05:20:38;;;;;;;21.67;15.93;;;;;;;4.93;81.87;100615.03;5039343;28;20432;-73
2020/12/14 05:23:07;;;;;;;16.43;13.93;;;;;;;4.87;82.03;100610.56;5039458;28;20420;-73
2020/12/14 05:25:32;;;;;;;18.20;13.87;;;;;;;5.12;80.87;100605.28;5038452;28;20222;-73
2020/12/14 05:28:05;;;;;;;15.90;13.00;;;;;;;4.94;81.62;100598.72;5038922;28;20376;-73
2020/12/14 05:30:38;;;;;;;17.30;14.53;;;;;;;4.79;81.73;100606.88;5038841;28;20607;-73
2020/12/14 05:33:04;;;;;;;20.70;15.73;;;;;;;4.95;81.82;100603.06;5039216;28;20405;-73
2020/12/14 05:35:34;;;;;;;20.67;14.60;;;;;;;4.89;81.29;100606.31;5039071;28;20682;-73
2020/12/14 05:38:12;;;;;;;18.60;14.90;;;;;;;4.91;81.00;100602.91;5038978;28;20444;-73
2020/12/14 05:40:37;;;;;;;20.53;14.80;;;;;;;5.18;80.41;100597.69;5038933;28;20428;-73
2020/12/14 05:43:13;;;;;;;17.10;13.70;;;;;;;4.99;80.83;100594.56;5038980;28;20412;-72
2020/12/14 05:45:40;;;;;;;15.47;12.63;;;;;;;4.84;80.68;100589.81;5039012;28;20540;-72
2020/12/14 05:48:31;;;;;;;16.80;13.37;;;;;;;4.87;80.95;100596.75;5038385;28;20731;-72
2020/12/14 05:51:01;;;;;;;16.83;13.73;;;;;;;4.91;80.82;100605.50;5038810;28;20468;-72
2020/12/14 05:53:37;;;;;;;16.60;13.13;;;;;;;4.84;81.64;100602.75;5038683;28;20697;-72
2020/12/14 05:56:04;;;;;;;17.37;13.17;;;;;;;4.88;81.61;100599.41;5038802;28;20660;-72
2020/12/14 05:58:31;;;;;;;16.83;14.10;;;;;;;4.99;80.74;100602.31;5038369;28;20433;-72
2020/12/14 06:00:57;;;;;;;14.80;11.63;;;;;;;4.97;81.58;100611.72;5037860;28;20413;-73
2020/12/14 06:03:24;;;;;;;13.17;11.80;;;;;;;4.97;80.50;100611.72;5038646;28;20431;-73
2020/12/14 06:05:51;;;;;;;17.60;13.40;;;;;;;5.22;80.21;100607.28;5038909;28;20167;-72
2020/12/14 06:08:45;;;;;;;17.90;13.00;;;;;;;5.23;80.11;100603.88;5038382;28;20431;-72
2020/12/14 06:11:13;;;;;;;14.30;11.63;;;;;;;5.18;79.37;100610.59;5038612;28;20547;-73
2020/12/14 06:13:52;;;;;;;18.83;12.90;;;;;;;5.32;79.83;100600.69;5038492;28;20412;-72
2020/12/14 06:16:19;;;;;;;14.47;11.80;;;;;;;5.55;79.03;100591.00;5038195;28;20416;-72
2020/12/14 06:18:45;;;;;;;13.57;12.00;;;;;;;5.43;78.80;100599.28;5037683;28;20413;-73
2020/12/14 06:21:16;;;;;;;15.67;12.57;;;;;;;5.13;80.34;100607.00;5038310;28;20420;-72
2020/12/14 06:23:43;;;;;;;13.70;11.10;;;;;;;5.04;80.70;100592.97;5038474;28;20870;-73
2020/12/14 06:26:08;;;;;;;14.37;11.57;;;;;;;5.31;79.54;100584.28;5038140;28;20718;-73
2020/12/14 06:28:34;;;;;;;14.77;12.60;;;;;;;5.14;79.22;100580.34;5037747;28;20425;-72
2020/12/14 06:31:00;;;;;;;13.67;12.27;;;;;;;5.19;79.30;100578.78;5037815;28;20580;-72
2020/12/14 06:33:39;;;;;;;12.40;10.23;;;;;;;5.19;79.78;100579.63;5037916;28;20810;-71
2020/12/14 06:36:18;;;;;;;16.00;12.53;;;;;;;5.12;79.29;100571.69;5037721;28;20183;-72
2020/12/14 06:38:46;;;;;;;12.50;11.20;;;;;;;5.10;79.66;100565.56;5037786;28;20445;-73
2020/12/14 06:41:22;;;;;;;13.30;11.63;;;;;;;5.22;79.53;100556.47;5036964;28;20810;-71
2020/12/14 06:43:49;;;;;;;14.60;11.73;;;;;;;5.35;78.95;100556.81;5037549;28;20884;-72
2020/12/14 06:46:25;;;;;;;13.57;11.40;;;;;;;5.38;79.11;100556.91;5036694;28;20429;-71
2020/12/14 06:48:52;;;;;;;11.20;10.03;;;;;;;5.38;78.85;100557.75;5037799;28;20428;-73
2020/12/14 06:51:18;;;;;;;12.00;10.00;;;;;;;5.11;79.13;100557.00;5037524;28;20469;-72
2020/12/14 06:53:45;;;;;;;14.93;9.80;;;;;;;5.32;78.45;100549.00;5037585;28;20456;-72
2020/12/14 06:56:13;;;;;;;12.73;11.37;;;;;;;5.25;79.42;100554.81;5037736;28;20232;-71
2020/12/14 06:58:46;;;;;;;14.37;11.10;;;;;;;5.09;78.45;100566.41;5037072;28;20857;-72
2020/12/14 07:01:38;;;;;;;11.27;10.07;;;;;;;5.22;79.49;100560.75;5037330;28;20814;-72
2020/12/14 07:04:04;;;;;;;13.60;11.90;;;;;;;5.04;79.50;100558.53;5037081;28;20433;-72
2020/12/14 07:06:30;;;;;;;11.47;10.27;;;;;;;5.16;79.12;100573.53;5037018;28;20754;-72
2020/12/14 07:08:56;;;;;;;11.97;10.67;;;;;;;5.06;79.11;100559.47;5036984;28;20559;-71
2020/12/14 07:11:23;;;;;;;13.20;10.70;;;;;;;5.16;79.15;100555.44;5037129;28;20873;-71
2020/12/14 07:13:49;;;;;;;11.10;10.00;;;;;;;5.13;78.89;100560.47;5037594;28;20197;-71
2020/12/14 07:16:16;;;;;;;14.00;10.93;;;;;;;5.08;79.83;100560.38;5036999;28;20432;-72
2020/12/14 07:18:44;;;;;;;11.93;10.07;;;;;;;5.22;78.96;100561.66;5037036;28;20476;-72
2020/12/14 07:21:16;;;;;;;11.23;9.60;;;;;;;5.16;78.69;100568.34;5037512;28;20425;-72
2020/12/14 07:23:44;;;;;;;12.80;10.87;;;;;;;5.42;78.05;100552.69;5036923;28;20848;-72
2020/12/14 07:26:11;;;;;;;12.57;10.03;;;;;;;5.56;77.72;100572.03;5037015;28;20444;-72
2020/12/14 07:28:42;;;;;;;11.87;10.40;;;;;;;5.26;78.23;100569.47;5036754;28;20487;-72
2020/12/14 07:31:26;;;;;;;15.13;9.57;;;;;;;5.40;77.77;100563.00;5036888;28;20522;-72
2020/12/14 07:33:54;;;;;;;11.37;10.17;;;;;;;5.25;78.53;100570.31;5036718;28;20420;-73
2020/12/14 07:36:20;;;;;;;11.30;9.80;;;;;;;5.33;78.28;100558.47;5036043;28;20690;-73
2020/12/14 07:38:55;;;;;;;13.07;10.90;;;;;;;5.32;78.08;100567.94;5036585;28;20420;-71
2020/12/14 07:41:22;;;;;;;12.63;9.90;;;;;;;5.32;77.74;100582.59;5036542;28;20421;-71
2020/12/14 07:43:49;;;;;;;10.30;9.20;;;;;;;5.65;77.34;100582.63;5036810;28;20475;-72
2020/12/14 07:46:16;;;;;;;12.10;10.47;;;;;;;5.73;76.58;100586.28;5036449;28;20656;-73
2020/12/14 07:48:41;;;;;;;13.20;10.10;;;;;;;5.51;76.72;100574.50;5036925;28;20669;-72
2020/12/14 07:51:06;;;;;;;10.60;9.40;;;;;;;5.46;77.02;100576.06;5036471;28;20469;-73
2020/12/14 07:53:32;;;;;;;10.73;9.63;;;;;;;5.70;76.24;100573.28;5036611;28;20281;-73
2020/12/14 07:56:07;;;;;;;11.07;9.70;;;;;;;5.78;76.15;100572.59;5037071;28;20546;-72
2020/12/14 07:58:32;;;;;;;11.40;10.30;;;;;;;5.73;76.52;100577.66;5036269;28;20281;-72
2020/12/14 08:00:58;;;;;;;13.53;9.83;;;;;;;5.45;77.17;100565.69;5036499;28;20429;-73
2020/12/14 08:03:23;;;;;;;18.90;9.70;;;;;;;5.74;77.02;100572.53;5036670;28;20470;-73
2020/12/14 08:05:48;;;;;;;11.43;9.60;;;;;;;5.62;76.55;100568.75;5036646;28;20174;-73
2020/12/14 08:08:14;;;;;;;11.13;10.00;;;;;;;5.87;76.59;100568.56;5036655;28;20178;-72
2020/12/14 08:10:40;;;;;;;10.53;9.43;;;;;;;5.95;75.55;100576.50;5036433;28;20190;-73
2020/12/14 08:13:10;;;;;;;10.00;9.00;;;;;;;5.64;77.07;100569.66;5035712;28;20436;-72
2020/12/14 08:15:37;;;;;;;9.93;8.93;;;;;;;5.81;76.16;100564.94;5036103;28;20167;-72
2020/12/14 08:18:05;;;;;;;10.10;9.10;;;;;;;5.73;76.68;100550.09;5036383;28;20417;-73
2020/12/14 08:20:32;;;;;;;10.10;8.80;;;;;;;5.82;76.47;100545.97;5035939;28;20460;-71
2020/12/14 08:22:59;;;;;;;10.33;8.60;;;;;;;5.51;76.91;100547.78;5036748;28;20814;-72
2020/12/14 08:25:29;;;;;;;10.63;9.50;;;;;;;5.62;76.70;100548.94;5036289;28;20475;-73
2020/12/14 08:28:02;;;;;;;10.43;8.90;;;;;;;5.54;76.81;100548.72;5036206;28;20521;-72
2020/12/14 08:30:28;;;;;;;9.97;8.97;;;;;;;5.73;76.80;100556.97;5035885;28;20493;-72
2020/12/14 08:33:13;;;;;;;10.60;9.50;;;;;;;6.03;75.11;100564.66;5036247;28;20808;-72
2020/12/14 08:35:43;;;;;;;9.20;8.30;;;;;;;5.88;75.99;100559.09;5036023;28;20182;-72
2020/12/14 08:38:19;;;;;;;10.03;9.03;;;;;;;6.04;75.42;100566.44;5035911;28;20511;-71
2020/12/14 08:40:54;;;;;;;11.13;7.90;;;;;;;6.03;75.16;100567.25;5036009;28;20515;-72
2020/12/14 08:43:20;;;;;;;10.53;9.43;;;;;;;5.92;75.91;100545.41;5036221;28;20419;-72
2020/12/14 08:46:05;;;;;;;9.90;8.90;;;;;;;5.95;75.82;100544.59;5036240;28;20669;-72
2020/12/14 08:48:39;;;;;;;9.87;8.87;;;;;;;5.86;75.90;100550.44;5035917;28;20421;-72
2020/12/14 08:51:12;;;;;;;9.27;8.20;;;;;;;5.83;75.55;100548.63;5037438;28;20525;-72
2020/12/14 08:53:38;;;;;;;9.40;8.50;;;;;;;5.64;76.36;100542.09;5039691;28;20452;-71
2020/12/14 08:56:12;;;;;;;11.17;8.57;;;;;;;5.77;76.14;100534.66;5039808;28;20493;-72
2020/12/14 08:58:52;;;;;;;8.53;7.63;;;;;;;5.86;76.43;100535.78;5039478;28;20181;-73
2020/12/14 09:01:20;;;;;;;9.50;8.50;;;;;;;5.82;76.63;100538.22;5039528;28;20482;-74
2020/12/14 09:03:46;;;;;;;14.27;9.07;;;;;;;5.99;74.99;100538.69;5039510;28;20419;-74
2020/12/14 09:06:27;;;;;;;10.83;8.83;;;;;;;6.04;75.62;100535.38;5039411;28;20686;-73
2020/12/14 09:08:57;;;;;;;10.93;8.90;;;;;;;5.95;75.16;100534.25;5038667;28;20432;-73
2020/12/14 09:11:22;;;;;;;9.23;8.27;;;;;;;6.10;75.53;100532.06;5039288;28;20707;-73
2020/12/14 09:13:49;;;;;;;9.93;8.90;;;;;;;6.12;75.30;100527.81;5039418;28;20421;-74
2020/12/14 09:16:17;;;;;;;10.00;8.07;;;;;;;6.16;75.13;100533.94;5039488;28;20202;-73
2020/12/14 09:18:44;;;;;;;12.37;8.33;;;;;;;6.06;75.13;100536.31;5039157;28;20420;-73
2020/12/14 09:21:09;;;;;;;10.03;8.33;;;;;;;6.31;74.58;100528.25;5039333;28;20423;-74
2020/12/14 09:23:34;;;;;;;8.83;7.90;;;;;;;6.02;74.53;100536.19;5039248;28;20720;-73
2020/12/14 09:26:00;;;;;;;8.97;7.93;;;;;;;5.97;75.50;100530.88;5038879;28;20189;-74
2020/12/14 09:28:26;;;;;;;8.20;7.13;;;;;;;6.12;75.11;100524.38;5039052;28;20186;-73
2020/12/14 09:30:51;;;;;;;9.47;7.80;;;;;;;6.28;74.21;100529.06;5038955;28;20202;-72
2020/12/14 09:33:16;;;;;;;7.93;7.13;;;;;;;6.28;73.93;100542.00;5039037;28;20802;-72
2020/12/14 09:35:41;;;;;;;8.53;7.70;;;;;;;6.16;74.05;100546.88;5039405;28;20238;-72
2020/12/14 09:38:07;;;;;;;12.40;7.77;;;;;;;6.40;73.51;100537.13;5039076;28;20271;-72
2020/12/14 09:40:32;;;;;;;8.00;7.20;;;;;;;6.30;73.77;100542.03;5038512;28;20177;-72
2020/12/14 09:42:57;;;;;;;7.97;7.17;;;;;;;6.50;73.13;100538.19;5039199;28;20174;-72
2020/12/14 09:45:22;;;;;;;8.03;7.33;;;;;;;6.34;73.50;100538.69;5038839;28;20244;-72
2020/12/14 09:47:48;;;;;;;7.60;6.90;;;;;;;6.35;73.64;100532.66;5038756;28;20495;-72
2020/12/14 09:50:13;;;;;;;10.70;6.90;;;;;;;6.24;73.87;100528.09;5038798;28;20206;-73
2020/12/14 09:52:39;;;;;;;7.90;6.70;;;;;;;6.16;75.31;100537.41;5038479;28;20277;-73
2020/12/14 09:55:04;;;;;;;7.37;6.67;;;;;;;6.57;74.43;100526.25;5038442;28;20275;-74
2020/12/14 09:57:30;;;;;;;7.03;6.40;;;;;;;6.33;75.16;100526.56;5038880;28;20189;-73
2020/12/14 09:59:55;;;;;;;8.53;7.03;;;;;;;6.37;76.19;100534.47;5038478;28;20271;-72
2020/12/14 10:02:21;;;;;;;8.00;7.20;;;;;;;6.45;76.40;100531.16;5037818;28;20162;-73
2020/12/14 10:04:46;;;;;;;7.70;6.90;;;;;;;6.38;77.92;100532.72;5038763;28;20312;-74
2020/12/14 10:07:11;;;;;;;11.07;6.53;;;;;;;6.57;76.59;100528.84;5038476;28;20174;-73
2020/12/14 10:09:36;;;;;;;9.30;8.37;;;;;;;6.34;77.65;100538.69;5038136;28;20450;-72
2020/12/14 10:12:02;;;;;;;8.40;7.60;;;;;;;6.32;79.08;100530.88;5038592;28;20205;-72
2020/12/14 10:14:27;;;;;;;8.87;7.97;;;;;;;6.04;80.27;100529.34;5038153;28;20174;-72
2020/12/14 10:16:52;;;;;;;8.77;7.93;;;;;;;6.20;80.77;100522.84;5038227;28;20531;-72
2020/12/14 10:19:18;;;;;;;13.20;8.27;;;;;;;5.84;81.94;100524.50;5038271;28;20489;-72
2020/12/14 10:21:43;;;;;;;8.67;7.77;;;;;;;6.15;81.42;100533.06;5038175;28;20265;-72
2020/12/14 10:24:08;;;;;;;8.80;7.87;;;;;;;6.04;82.04;100531.94;5038063;28;20222;-72
2020/12/14 10:26:36;;;;;;;8.63;7.73;;;;;;;5.86;82.78;100529.72;5038158;28;20435;-73
2020/12/14 10:29:01;;;;;;;11.07;9.90;;;;;;;6.13;82.12;100534.75;5037730;28;20268;-73
2020/12/14 10:31:26;;;;;;;8.97;8.03;;;;;;;5.96;82.78;100530.84;5037631;28;20559;-72
2020/12/14 10:33:52;;;;;;;11.30;8.73;;;;;;;5.88;83.61;100520.28;5038145;28;20261;-72
2020/12/14 10:36:18;;;;;;;11.40;8.10;;;;;;;5.79;83.59;100522.63;5037725;28;20170;-72
2020/12/14 10:38:46;;;;;;;9.60;8.37;;;;;;;6.06;82.80;100523.38;5037522;28;20170;-72
2020/12/14 10:41:11;;;;;;;9.27;8.00;;;;;;;5.97;82.73;100515.34;5037945;28;20393;-73
2020/12/14 10:43:36;;;;;;;9.00;8.10;;;;;;;5.93;83.14;100510.94;5037572;28;20429;-72
2020/12/14 10:46:02;;;;;;;8.00;7.30;;;;;;;5.81;84.46;100506.31;5037556;28;20174;-72
2020/12/14 10:48:27;;;;;;;9.07;8.17;;;;;;;6.20;83.16;100504.72;5037634;28;20170;-74
2020/12/14 10:50:52;;;;;;;9.07;8.13;;;;;;;5.95;84.12;100514.41;5037422;28;20208;-73
2020/12/14 10:53:17;;;;;;;8.63;7.57;;;;;;;5.97;84.22;100512.75;5037606;28;20442;-73
2020/12/14 10:55:43;;;;;;;8.43;7.63;;;;;;;6.18;83.69;100516.72;5037659;28;20273;-75
2020/12/14 10:58:08;;;;;;;9.10;8.00;;;;;;;6.00;83.61;100519.75;5037584;28;20170;-73
2020/12/14 11:00:35;;;;;;;7.63;6.80;;;;;;;5.96;83.66;100513.59;5037187;28;20438;-75
2020/12/14 11:03:00;;;;;;;7.97;7.17;;;;;;;6.17;83.58;100499.44;5037716;28;20261;-74
2020/12/14 11:05:25;;;;;;;8.77;7.60;;;;;;;6.35;83.03;100502.47;5037281;28;20492;-73
2020/12/14 11:07:51;;;;;;;8.70;7.80;;;;;;;6.38;83.42;100502.53;5037330;28;20178;-72
2020/12/14 11:10:16;;;;;;;9.90;8.47;;;;;;;6.24;83.70;100491.00;5037170;28;20559;-73
2020/12/14 11:12:41;;;;;;;11.80;8.23;;;;;;;6.04;84.69;100509.50;5036926;28;20176;-71
2020/12/14 11:15:07;;;;;;;8.67;7.77;;;;;;;6.00;84.98;100499.91;5036141;28;20170;-72
2020/12/14 11:17:34;;;;;;;9.07;7.90;;;;;;;6.01;85.44;100500.81;5037366;28;20459;-72
2020/12/14 11:19:59;;;;;;;8.10;7.30;;;;;;;5.95;85.52;100504.06;5036780;28;20413;-72
2020/12/14 11:22:25;;;;;;;14.03;8.10;;;;;;;6.03;85.23;100505.16;5036771;28;20405;-72